sensor_id;sensor_type;location;lat;lon;timestamp;P1;durP1;ratioP1;P2;durP2;ratioP2
29214;SDS011;16252;49.816;7.964;2023-03-04T00:01:51;50.88;;;21.38;;
29214;SDS011;16252;49.816;7.964;2023-03-04T00:04:16;50.92;;;21.48;;
29214;SDS011;16252;49.816;7.964;2023-03-04T00:06:42;49.97;;;19.95;;
29214;SDS011;16252;49.816;7.964;2023-03-04T00:09:07;45.70;;;19.05;;
29214;SDS011;16252;49.816;7.964;2023-03-04T00:11:33;49.40;;;20.33;;
29214;SDS011;16252;49.816;7.964;2023-03-04T00:13:58;44.47;;;18.63;;
29214;SDS011;16252;49.816;7.964;2023-03-04T00:16:24;39.05;;;16.77;;
29214;SDS011;16252;49.816;7.964;2023-03-04T00:18:55;42.35;;;17.60;;
29214;SDS011;16252;49.816;7.964;2023-03-04T00:21:21;45.07;;;18.53;;
29214;SDS011;16252;49.816;7.964;2023-03-04T00:23:48;46.80;;;19.20;;
29214;SDS011;16252;49.816;7.964;2023-03-04T00:26:13;40.30;;;17.75;;
29214;SDS011;16252;49.816;7.964;2023-03-04T00:28:39;47.30;;;18.65;;
29214;SDS011;16252;49.816;7.964;2023-03-04T00:31:05;45.42;;;19.15;;
29214;SDS011;16252;49.816;7.964;2023-03-04T00:33:30;49.72;;;19.35;;
29214;SDS011;16252;49.816;7.964;2023-03-04T00:35:56;41.88;;;18.35;;
29214;SDS011;16252;49.816;7.964;2023-03-04T00:38:21;45.92;;;18.70;;
29214;SDS011;16252;49.816;7.964;2023-03-04T00:40:46;43.08;;;16.58;;
29214;SDS011;16252;49.816;7.964;2023-03-04T00:43:11;47.53;;;18.35;;
29214;SDS011;16252;49.816;7.964;2023-03-04T00:45:37;41.85;;;17.95;;
29214;SDS011;16252;49.816;7.964;2023-03-04T00:48:02;46.50;;;19.08;;
29214;SDS011;16252;49.816;7.964;2023-03-04T00:50:27;44.47;;;18.75;;
29214;SDS011;16252;49.816;7.964;2023-03-04T00:52:53;44.00;;;17.00;;
29214;SDS011;16252;49.816;7.964;2023-03-04T00:55:18;43.03;;;17.20;;
29214;SDS011;16252;49.816;7.964;2023-03-04T00:57:43;44.50;;;17.45;;
29214;SDS011;16252;49.816;7.964;2023-03-04T01:00:09;39.13;;;17.85;;
29214;SDS011;16252;49.816;7.964;2023-03-04T01:02:35;38.55;;;17.08;;
29214;SDS011;16252;49.816;7.964;2023-03-04T01:05:00;41.72;;;15.80;;
29214;SDS011;16252;49.816;7.964;2023-03-04T01:07:25;40.67;;;17.20;;
29214;SDS011;16252;49.816;7.964;2023-03-04T01:09:51;42.20;;;17.58;;
29214;SDS011;16252;49.816;7.964;2023-03-04T01:12:16;43.72;;;17.83;;
29214;SDS011;16252;49.816;7.964;2023-03-04T01:14:41;46.92;;;18.75;;
29214;SDS011;16252;49.816;7.964;2023-03-04T01:17:06;39.17;;;17.77;;
29214;SDS011;16252;49.816;7.964;2023-03-04T01:19:32;40.30;;;17.33;;
29214;SDS011;16252;49.816;7.964;2023-03-04T01:21:57;46.50;;;17.77;;
29214;SDS011;16252;49.816;7.964;2023-03-04T01:24:22;45.00;;;18.45;;
29214;SDS011;16252;49.816;7.964;2023-03-04T01:26:47;45.15;;;19.45;;
29214;SDS011;16252;49.816;7.964;2023-03-04T01:29:13;40.25;;;17.63;;
29214;SDS011;16252;49.816;7.964;2023-03-04T01:31:38;40.13;;;17.40;;
29214;SDS011;16252;49.816;7.964;2023-03-04T01:34:03;39.90;;;17.73;;
29214;SDS011;16252;49.816;7.964;2023-03-04T01:36:29;43.28;;;16.65;;
29214;SDS011;16252;49.816;7.964;2023-03-04T01:38:54;41.88;;;16.80;;
29214;SDS011;16252;49.816;7.964;2023-03-04T01:41:21;40.67;;;17.48;;
29214;SDS011;16252;49.816;7.964;2023-03-04T01:43:49;36.55;;;16.77;;
29214;SDS011;16252;49.816;7.964;2023-03-04T01:46:17;35.92;;;15.48;;
29214;SDS011;16252;49.816;7.964;2023-03-04T01:48:42;43.17;;;18.08;;
29214;SDS011;16252;49.816;7.964;2023-03-04T01:51:12;40.95;;;17.88;;
29214;SDS011;16252;49.816;7.964;2023-03-04T01:53:39;44.60;;;18.05;;
29214;SDS011;16252;49.816;7.964;2023-03-04T02:01:42;38.33;;;16.63;;
29214;SDS011;16252;49.816;7.964;2023-03-04T02:04:09;42.60;;;17.55;;
29214;SDS011;16252;49.816;7.964;2023-03-04T02:06:36;45.58;;;18.50;;
29214;SDS011;16252;49.816;7.964;2023-03-04T02:09:03;45.20;;;17.73;;
29214;SDS011;16252;49.816;7.964;2023-03-04T02:11:29;39.70;;;16.35;;
29214;SDS011;16252;49.816;7.964;2023-03-04T02:13:54;44.03;;;18.13;;
29214;SDS011;16252;49.816;7.964;2023-03-04T02:16:19;41.15;;;16.83;;
29214;SDS011;16252;49.816;7.964;2023-03-04T02:18:45;43.85;;;18.48;;
29214;SDS011;16252;49.816;7.964;2023-03-04T02:21:13;45.58;;;17.60;;
29214;SDS011;16252;49.816;7.964;2023-03-04T02:24:02;41.38;;;17.10;;
29214;SDS011;16252;49.816;7.964;2023-03-04T02:26:39;45.38;;;17.48;;
29214;SDS011;16252;49.816;7.964;2023-03-04T02:29:07;42.85;;;16.80;;
29214;SDS011;16252;49.816;7.964;2023-03-04T02:31:41;41.00;;;16.70;;
29214;SDS011;16252;49.816;7.964;2023-03-04T02:34:12;41.60;;;16.35;;
29214;SDS011;16252;49.816;7.964;2023-03-04T02:36:39;40.10;;;17.13;;
29214;SDS011;16252;49.816;7.964;2023-03-04T02:39:09;39.83;;;17.50;;
29214;SDS011;16252;49.816;7.964;2023-03-04T02:41:36;42.60;;;17.33;;
29214;SDS011;16252;49.816;7.964;2023-03-04T02:44:02;37.80;;;16.73;;
29214;SDS011;16252;49.816;7.964;2023-03-04T02:46:27;41.45;;;16.38;;
29214;SDS011;16252;49.816;7.964;2023-03-04T02:48:52;40.40;;;17.35;;
29214;SDS011;16252;49.816;7.964;2023-03-04T02:51:18;38.88;;;16.20;;
29214;SDS011;16252;49.816;7.964;2023-03-04T02:53:44;40.08;;;16.48;;
29214;SDS011;16252;49.816;7.964;2023-03-04T02:56:09;40.28;;;16.35;;
29214;SDS011;16252;49.816;7.964;2023-03-04T02:58:35;39.75;;;16.13;;
29214;SDS011;16252;49.816;7.964;2023-03-04T03:01:02;38.25;;;17.17;;
29214;SDS011;16252;49.816;7.964;2023-03-04T03:03:28;41.22;;;17.42;;
29214;SDS011;16252;49.816;7.964;2023-03-04T03:05:53;42.55;;;16.77;;
29214;SDS011;16252;49.816;7.964;2023-03-04T03:08:18;36.55;;;16.08;;
29214;SDS011;16252;49.816;7.964;2023-03-04T03:10:44;38.03;;;17.17;;
29214;SDS011;16252;49.816;7.964;2023-03-04T03:13:09;45.00;;;18.17;;
29214;SDS011;16252;49.816;7.964;2023-03-04T03:15:34;45.25;;;17.17;;
29214;SDS011;16252;49.816;7.964;2023-03-04T03:18:01;38.03;;;16.98;;
29214;SDS011;16252;49.816;7.964;2023-03-04T03:20:26;42.58;;;16.85;;
29214;SDS011;16252;49.816;7.964;2023-03-04T03:22:51;40.13;;;16.50;;
29214;SDS011;16252;49.816;7.964;2023-03-04T03:25:17;39.88;;;16.27;;
29214;SDS011;16252;49.816;7.964;2023-03-04T03:27:42;43.88;;;17.42;;
29214;SDS011;16252;49.816;7.964;2023-03-04T03:30:09;37.95;;;15.90;;
29214;SDS011;16252;49.816;7.964;2023-03-04T03:32:37;40.03;;;16.15;;
29214;SDS011;16252;49.816;7.964;2023-03-04T03:35:05;39.60;;;16.90;;
29214;SDS011;16252;49.816;7.964;2023-03-04T03:37:30;43.45;;;17.20;;
29214;SDS011;16252;49.816;7.964;2023-03-04T03:39:56;39.83;;;16.77;;
29214;SDS011;16252;49.816;7.964;2023-03-04T03:42:21;40.33;;;17.20;;
29214;SDS011;16252;49.816;7.964;2023-03-04T03:44:47;47.22;;;17.67;;
29214;SDS011;16252;49.816;7.964;2023-03-04T03:47:14;41.95;;;17.80;;
29214;SDS011;16252;49.816;7.964;2023-03-04T03:49:39;42.53;;;18.48;;
29214;SDS011;16252;49.816;7.964;2023-03-04T03:52:04;41.53;;;16.15;;
29214;SDS011;16252;49.816;7.964;2023-03-04T03:54:32;42.47;;;17.90;;
29214;SDS011;16252;49.816;7.964;2023-03-04T03:56:57;40.75;;;17.25;;
29214;SDS011;16252;49.816;7.964;2023-03-04T03:59:22;41.10;;;16.35;;
29214;SDS011;16252;49.816;7.964;2023-03-04T04:01:48;40.22;;;16.17;;
29214;SDS011;16252;49.816;7.964;2023-03-04T04:04:13;42.08;;;16.67;;
29214;SDS011;16252;49.816;7.964;2023-03-04T04:06:39;31.80;;;14.05;;
29214;SDS011;16252;49.816;7.964;2023-03-04T04:09:04;37.85;;;16.20;;
29214;SDS011;16252;49.816;7.964;2023-03-04T04:11:29;42.10;;;16.02;;
29214;SDS011;16252;49.816;7.964;2023-03-04T04:13:54;37.78;;;15.90;;
29214;SDS011;16252;49.816;7.964;2023-03-04T04:16:20;42.22;;;17.05;;
29214;SDS011;16252;49.816;7.964;2023-03-04T04:18:45;39.90;;;16.55;;
29214;SDS011;16252;49.816;7.964;2023-03-04T04:21:10;40.03;;;16.98;;
29214;SDS011;16252;49.816;7.964;2023-03-04T04:23:36;39.08;;;16.55;;
29214;SDS011;16252;49.816;7.964;2023-03-04T04:26:01;41.53;;;16.08;;
29214;SDS011;16252;49.816;7.964;2023-03-04T04:28:27;41.35;;;16.60;;
29214;SDS011;16252;49.816;7.964;2023-03-04T04:30:52;35.15;;;16.35;;
29214;SDS011;16252;49.816;7.964;2023-03-04T04:33:18;37.88;;;15.88;;
29214;SDS011;16252;49.816;7.964;2023-03-04T04:35:43;41.33;;;16.60;;
29214;SDS011;16252;49.816;7.964;2023-03-04T04:38:08;43.58;;;16.23;;
29214;SDS011;16252;49.816;7.964;2023-03-04T04:40:34;38.70;;;17.10;;
29214;SDS011;16252;49.816;7.964;2023-03-04T04:42:59;39.55;;;17.60;;
29214;SDS011;16252;49.816;7.964;2023-03-04T04:45:25;37.28;;;16.27;;
29214;SDS011;16252;49.816;7.964;2023-03-04T04:47:50;37.70;;;16.58;;
29214;SDS011;16252;49.816;7.964;2023-03-04T04:50:16;43.03;;;17.30;;
29214;SDS011;16252;49.816;7.964;2023-03-04T04:52:42;39.15;;;16.13;;
29214;SDS011;16252;49.816;7.964;2023-03-04T04:55:11;41.15;;;16.20;;
29214;SDS011;16252;49.816;7.964;2023-03-04T04:57:36;39.67;;;15.18;;
29214;SDS011;16252;49.816;7.964;2023-03-04T05:00:03;45.58;;;17.70;;
29214;SDS011;16252;49.816;7.964;2023-03-04T05:02:32;37.25;;;16.17;;
29214;SDS011;16252;49.816;7.964;2023-03-04T05:05:04;40.30;;;16.95;;
29214;SDS011;16252;49.816;7.964;2023-03-04T05:07:30;41.35;;;17.13;;
29214;SDS011;16252;49.816;7.964;2023-03-04T05:09:55;36.33;;;16.45;;
29214;SDS011;16252;49.816;7.964;2023-03-04T05:12:21;36.80;;;15.90;;
29214;SDS011;16252;49.816;7.964;2023-03-04T05:14:46;39.88;;;16.83;;
29214;SDS011;16252;49.816;7.964;2023-03-04T05:17:12;41.15;;;16.85;;
29214;SDS011;16252;49.816;7.964;2023-03-04T05:19:37;38.00;;;16.75;;
29214;SDS011;16252;49.816;7.964;2023-03-04T05:22:03;39.88;;;17.23;;
29214;SDS011;16252;49.816;7.964;2023-03-04T05:24:28;40.28;;;15.90;;
29214;SDS011;16252;49.816;7.964;2023-03-04T05:26:54;46.22;;;17.20;;
29214;SDS011;16252;49.816;7.964;2023-03-04T05:29:19;37.78;;;17.27;;
29214;SDS011;16252;49.816;7.964;2023-03-04T05:31:45;39.17;;;17.05;;
29214;SDS011;16252;49.816;7.964;2023-03-04T05:34:10;41.95;;;18.10;;
29214;SDS011;16252;49.816;7.964;2023-03-04T05:36:36;41.58;;;17.17;;
29214;SDS011;16252;49.816;7.964;2023-03-04T05:39:01;43.33;;;18.30;;
29214;SDS011;16252;49.816;7.964;2023-03-04T05:41:38;38.78;;;16.98;;
29214;SDS011;16252;49.816;7.964;2023-03-04T05:44:04;46.20;;;19.45;;
29214;SDS011;16252;49.816;7.964;2023-03-04T05:46:30;41.65;;;17.13;;
29214;SDS011;16252;49.816;7.964;2023-03-04T05:48:55;43.63;;;17.80;;
29214;SDS011;16252;49.816;7.964;2023-03-04T05:51:21;40.58;;;16.80;;
29214;SDS011;16252;49.816;7.964;2023-03-04T05:53:47;42.50;;;18.13;;
29214;SDS011;16252;49.816;7.964;2023-03-04T05:56:13;40.35;;;18.52;;
29214;SDS011;16252;49.816;7.964;2023-03-04T05:58:40;40.42;;;17.80;;
29214;SDS011;16252;49.816;7.964;2023-03-04T06:01:07;41.28;;;17.20;;
29214;SDS011;16252;49.816;7.964;2023-03-04T06:03:32;41.22;;;18.60;;
29214;SDS011;16252;49.816;7.964;2023-03-04T06:05:58;41.28;;;17.67;;
29214;SDS011;16252;49.816;7.964;2023-03-04T06:08:24;40.10;;;17.90;;
29214;SDS011;16252;49.816;7.964;2023-03-04T06:10:53;42.60;;;17.70;;
29214;SDS011;16252;49.816;7.964;2023-03-04T06:13:20;46.13;;;20.13;;
29214;SDS011;16252;49.816;7.964;2023-03-04T06:15:46;47.90;;;20.55;;
29214;SDS011;16252;49.816;7.964;2023-03-04T06:18:11;46.72;;;19.80;;
29214;SDS011;16252;49.816;7.964;2023-03-04T06:20:36;43.25;;;18.83;;
29214;SDS011;16252;49.816;7.964;2023-03-04T06:23:02;43.42;;;18.88;;
29214;SDS011;16252;49.816;7.964;2023-03-04T06:25:28;49.97;;;20.85;;
29214;SDS011;16252;49.816;7.964;2023-03-04T06:27:53;47.70;;;20.05;;
29214;SDS011;16252;49.816;7.964;2023-03-04T06:30:19;48.88;;;21.00;;
29214;SDS011;16252;49.816;7.964;2023-03-04T06:32:45;43.42;;;19.45;;
29214;SDS011;16252;49.816;7.964;2023-03-04T06:35:11;44.50;;;19.98;;
29214;SDS011;16252;49.816;7.964;2023-03-04T06:37:38;46.78;;;21.15;;
29214;SDS011;16252;49.816;7.964;2023-03-04T06:40:03;48.25;;;20.83;;
29214;SDS011;16252;49.816;7.964;2023-03-04T06:42:29;47.88;;;21.05;;
29214;SDS011;16252;49.816;7.964;2023-03-04T06:44:55;42.30;;;20.40;;
29214;SDS011;16252;49.816;7.964;2023-03-04T06:47:20;48.10;;;20.90;;
29214;SDS011;16252;49.816;7.964;2023-03-04T06:49:45;45.97;;;20.00;;
29214;SDS011;16252;49.816;7.964;2023-03-04T06:52:11;43.15;;;20.05;;
29214;SDS011;16252;49.816;7.964;2023-03-04T06:54:37;44.67;;;19.23;;
29214;SDS011;16252;49.816;7.964;2023-03-04T06:57:02;45.42;;;19.58;;
29214;SDS011;16252;49.816;7.964;2023-03-04T06:59:28;49.00;;;19.80;;
29214;SDS011;16252;49.816;7.964;2023-03-04T07:01:53;43.33;;;20.23;;
29214;SDS011;16252;49.816;7.964;2023-03-04T07:04:18;45.30;;;20.08;;
29214;SDS011;16252;49.816;7.964;2023-03-04T07:06:44;46.85;;;20.88;;
29214;SDS011;16252;49.816;7.964;2023-03-04T07:09:09;46.78;;;20.83;;
29214;SDS011;16252;49.816;7.964;2023-03-04T07:11:34;51.72;;;22.58;;
29214;SDS011;16252;49.816;7.964;2023-03-04T07:14:00;47.53;;;22.50;;
29214;SDS011;16252;49.816;7.964;2023-03-04T07:16:25;44.97;;;21.60;;
29214;SDS011;16252;49.816;7.964;2023-03-04T07:18:50;47.47;;;21.48;;
29214;SDS011;16252;49.816;7.964;2023-03-04T07:21:16;47.35;;;20.63;;
29214;SDS011;16252;49.816;7.964;2023-03-04T07:23:42;45.85;;;21.55;;
29214;SDS011;16252;49.816;7.964;2023-03-04T07:26:07;51.67;;;22.48;;
29214;SDS011;16252;49.816;7.964;2023-03-04T07:28:34;44.80;;;21.73;;
29214;SDS011;16252;49.816;7.964;2023-03-04T07:31:13;48.42;;;22.52;;
29214;SDS011;16252;49.816;7.964;2023-03-04T07:33:42;48.17;;;22.40;;
29214;SDS011;16252;49.816;7.964;2023-03-04T07:36:07;48.53;;;21.63;;
29214;SDS011;16252;49.816;7.964;2023-03-04T07:38:32;49.47;;;23.23;;
29214;SDS011;16252;49.816;7.964;2023-03-04T07:40:58;52.42;;;24.20;;
29214;SDS011;16252;49.816;7.964;2023-03-04T07:43:24;52.28;;;24.20;;
29214;SDS011;16252;49.816;7.964;2023-03-04T07:45:50;45.30;;;22.25;;
29214;SDS011;16252;49.816;7.964;2023-03-04T07:48:15;44.97;;;21.15;;
29214;SDS011;16252;49.816;7.964;2023-03-04T07:50:41;41.03;;;18.80;;
29214;SDS011;16252;49.816;7.964;2023-03-04T07:53:06;44.53;;;19.65;;
29214;SDS011;16252;49.816;7.964;2023-03-04T07:55:31;41.30;;;18.20;;
29214;SDS011;16252;49.816;7.964;2023-03-04T07:57:57;38.80;;;17.35;;
29214;SDS011;16252;49.816;7.964;2023-03-04T08:00:22;42.28;;;18.27;;
29214;SDS011;16252;49.816;7.964;2023-03-04T08:02:47;32.05;;;16.05;;
29214;SDS011;16252;49.816;7.964;2023-03-04T08:05:13;43.05;;;17.83;;
29214;SDS011;16252;49.816;7.964;2023-03-04T08:07:39;33.72;;;16.25;;
29214;SDS011;16252;49.816;7.964;2023-03-04T08:10:04;33.45;;;16.25;;
29214;SDS011;16252;49.816;7.964;2023-03-04T08:12:30;32.95;;;14.93;;
29214;SDS011;16252;49.816;7.964;2023-03-04T08:14:55;32.83;;;15.88;;
29214;SDS011;16252;49.816;7.964;2023-03-04T08:17:20;37.00;;;16.27;;
29214;SDS011;16252;49.816;7.964;2023-03-04T08:19:45;36.08;;;16.55;;
29214;SDS011;16252;49.816;7.964;2023-03-04T08:22:11;33.25;;;15.13;;
29214;SDS011;16252;49.816;7.964;2023-03-04T08:24:36;31.23;;;15.10;;
29214;SDS011;16252;49.816;7.964;2023-03-04T08:27:01;33.85;;;15.77;;
29214;SDS011;16252;49.816;7.964;2023-03-04T08:29:27;34.58;;;16.20;;
29214;SDS011;16252;49.816;7.964;2023-03-04T08:31:52;34.25;;;16.30;;
29214;SDS011;16252;49.816;7.964;2023-03-04T08:34:19;31.20;;;15.60;;
29214;SDS011;16252;49.816;7.964;2023-03-04T08:36:46;32.33;;;14.85;;
29214;SDS011;16252;49.816;7.964;2023-03-04T08:39:12;35.33;;;16.10;;
29214;SDS011;16252;49.816;7.964;2023-03-04T08:41:39;33.03;;;15.77;;
29214;SDS011;16252;49.816;7.964;2023-03-04T08:44:04;35.83;;;15.80;;
29214;SDS011;16252;49.816;7.964;2023-03-04T08:46:32;32.33;;;14.68;;
29214;SDS011;16252;49.816;7.964;2023-03-04T08:48:57;30.65;;;14.45;;
29214;SDS011;16252;49.816;7.964;2023-03-04T08:51:22;32.75;;;16.23;;
29214;SDS011;16252;49.816;7.964;2023-03-04T08:53:48;33.22;;;15.15;;
29214;SDS011;16252;49.816;7.964;2023-03-04T08:56:13;29.08;;;13.93;;
29214;SDS011;16252;49.816;7.964;2023-03-04T08:58:39;30.30;;;13.95;;
29214;SDS011;16252;49.816;7.964;2023-03-04T09:01:06;32.00;;;14.27;;
29214;SDS011;16252;49.816;7.964;2023-03-04T09:03:33;30.05;;;12.40;;
29214;SDS011;16252;49.816;7.964;2023-03-04T09:06:00;29.60;;;14.38;;
29214;SDS011;16252;49.816;7.964;2023-03-04T09:08:26;28.33;;;12.25;;
29214;SDS011;16252;49.816;7.964;2023-03-04T09:10:53;23.55;;;12.30;;
29214;SDS011;16252;49.816;7.964;2023-03-04T09:13:19;25.50;;;11.57;;
29214;SDS011;16252;49.816;7.964;2023-03-04T09:15:46;27.33;;;11.07;;
29214;SDS011;16252;49.816;7.964;2023-03-04T09:18:13;27.73;;;10.90;;
29214;SDS011;16252;49.816;7.964;2023-03-04T09:20:39;22.38;;;11.18;;
29214;SDS011;16252;49.816;7.964;2023-03-04T09:23:05;26.35;;;11.60;;
29214;SDS011;16252;49.816;7.964;2023-03-04T09:25:30;22.02;;;9.65;;
29214;SDS011;16252;49.816;7.964;2023-03-04T09:27:56;21.45;;;10.45;;
29214;SDS011;16252;49.816;7.964;2023-03-04T09:30:21;21.58;;;11.35;;
29214;SDS011;16252;49.816;7.964;2023-03-04T09:32:47;22.55;;;11.27;;
29214;SDS011;16252;49.816;7.964;2023-03-04T09:35:12;25.08;;;11.50;;
29214;SDS011;16252;49.816;7.964;2023-03-04T09:37:37;21.58;;;10.73;;
29214;SDS011;16252;49.816;7.964;2023-03-04T09:40:03;20.85;;;10.20;;
29214;SDS011;16252;49.816;7.964;2023-03-04T09:42:32;23.90;;;10.93;;
29214;SDS011;16252;49.816;7.964;2023-03-04T09:45:01;25.27;;;10.85;;
29214;SDS011;16252;49.816;7.964;2023-03-04T09:47:29;21.08;;;10.68;;
29214;SDS011;16252;49.816;7.964;2023-03-04T09:49:59;19.55;;;10.82;;
29214;SDS011;16252;49.816;7.964;2023-03-04T09:55:16;25.50;;;10.95;;
29214;SDS011;16252;49.816;7.964;2023-03-04T10:02:44;19.27;;;10.02;;
29214;SDS011;16252;49.816;7.964;2023-03-04T10:05:19;20.50;;;9.93;;
29214;SDS011;16252;49.816;7.964;2023-03-04T10:07:47;25.55;;;10.38;;
29214;SDS011;16252;49.816;7.964;2023-03-04T10:10:24;18.50;;;10.35;;
29214;SDS011;16252;49.816;7.964;2023-03-04T10:12:56;22.77;;;9.68;;
29214;SDS011;16252;49.816;7.964;2023-03-04T10:15:32;18.15;;;8.65;;
29214;SDS011;16252;49.816;7.964;2023-03-04T10:18:15;15.82;;;9.07;;
29214;SDS011;16252;49.816;7.964;2023-03-04T10:23:28;20.25;;;9.25;;
29214;SDS011;16252;49.816;7.964;2023-03-04T10:25:55;21.10;;;9.15;;
29214;SDS011;16252;49.816;7.964;2023-03-04T10:28:24;21.33;;;9.48;;
29214;SDS011;16252;49.816;7.964;2023-03-04T10:33:49;15.88;;;8.13;;
29214;SDS011;16252;49.816;7.964;2023-03-04T10:38:45;15.60;;;7.40;;
29214;SDS011;16252;49.816;7.964;2023-03-04T10:41:15;21.90;;;7.90;;
29214;SDS011;16252;49.816;7.964;2023-03-04T10:43:49;14.98;;;7.22;;
29214;SDS011;16252;49.816;7.964;2023-03-04T10:46:24;17.40;;;7.85;;
29214;SDS011;16252;49.816;7.964;2023-03-04T10:48:51;20.67;;;8.55;;
29214;SDS011;16252;49.816;7.964;2023-03-04T10:51:21;16.52;;;7.93;;
29214;SDS011;16252;49.816;7.964;2023-03-04T10:53:49;19.05;;;7.80;;
29214;SDS011;16252;49.816;7.964;2023-03-04T11:01:49;15.30;;;7.65;;
29214;SDS011;16252;49.816;7.964;2023-03-04T11:04:18;12.18;;;6.03;;
29214;SDS011;16252;49.816;7.964;2023-03-04T11:06:44;15.50;;;7.35;;
29214;SDS011;16252;49.816;7.964;2023-03-04T11:12:13;15.95;;;6.38;;
29214;SDS011;16252;49.816;7.964;2023-03-04T11:14:40;14.20;;;7.25;;
29214;SDS011;16252;49.816;7.964;2023-03-04T11:17:21;18.42;;;6.93;;
29214;SDS011;16252;49.816;7.964;2023-03-04T11:22:42;16.55;;;6.25;;
29214;SDS011;16252;49.816;7.964;2023-03-04T11:25:26;13.60;;;6.80;;
29214;SDS011;16252;49.816;7.964;2023-03-04T11:27:57;13.32;;;6.53;;
29214;SDS011;16252;49.816;7.964;2023-03-04T11:30:47;12.02;;;6.93;;
29214;SDS011;16252;49.816;7.964;2023-03-04T11:33:27;14.35;;;6.30;;
29214;SDS011;16252;49.816;7.964;2023-03-04T11:38:43;13.98;;;6.13;;
29214;SDS011;16252;49.816;7.964;2023-03-04T11:41:13;10.70;;;5.68;;
29214;SDS011;16252;49.816;7.964;2023-03-04T11:43:56;15.48;;;6.55;;
29214;SDS011;16252;49.816;7.964;2023-03-04T11:46:33;11.63;;;5.72;;
29214;SDS011;16252;49.816;7.964;2023-03-04T11:52:18;11.33;;;5.37;;
29214;SDS011;16252;49.816;7.964;2023-03-04T11:57:53;12.40;;;4.93;;
29214;SDS011;16252;49.816;7.964;2023-03-04T12:00:36;10.60;;;5.97;;
29214;SDS011;16252;49.816;7.964;2023-03-04T12:03:16;13.15;;;5.82;;
29214;SDS011;16252;49.816;7.964;2023-03-04T12:08:42;11.75;;;5.82;;
29214;SDS011;16252;49.816;7.964;2023-03-04T12:11:37;12.45;;;5.90;;
29214;SDS011;16252;49.816;7.964;2023-03-04T12:14:23;12.43;;;5.90;;
29214;SDS011;16252;49.816;7.964;2023-03-04T12:17:08;14.60;;;6.07;;
29214;SDS011;16252;49.816;7.964;2023-03-04T12:22:50;14.30;;;6.50;;
29214;SDS011;16252;49.816;7.964;2023-03-04T12:25:40;13.27;;;5.90;;
29214;SDS011;16252;49.816;7.964;2023-03-04T12:39:29;14.73;;;6.70;;
29214;SDS011;16252;49.816;7.964;2023-03-04T12:42:01;12.95;;;6.03;;
29214;SDS011;16252;49.816;7.964;2023-03-04T12:44:42;11.80;;;6.50;;
29214;SDS011;16252;49.816;7.964;2023-03-04T12:47:54;14.97;;;6.80;;
29214;SDS011;16252;49.816;7.964;2023-03-04T12:53:00;15.68;;;6.78;;
29214;SDS011;16252;49.816;7.964;2023-03-04T12:55:41;14.52;;;7.30;;
29214;SDS011;16252;49.816;7.964;2023-03-04T12:58:42;12.02;;;7.03;;
29214;SDS011;16252;49.816;7.964;2023-03-04T13:01:15;12.88;;;6.88;;
29214;SDS011;16252;49.816;7.964;2023-03-04T13:06:19;14.05;;;6.38;;
29214;SDS011;16252;49.816;7.964;2023-03-04T13:09:31;11.93;;;6.00;;
29214;SDS011;16252;49.816;7.964;2023-03-04T13:12:02;10.30;;;5.57;;
29214;SDS011;16252;49.816;7.964;2023-03-04T13:14:38;19.33;;;6.30;;
29214;SDS011;16252;49.816;7.964;2023-03-04T13:20:22;10.10;;;5.45;;
29214;SDS011;16252;49.816;7.964;2023-03-04T13:43:55;11.70;;;6.18;;
29214;SDS011;16252;49.816;7.964;2023-03-04T13:56:31;12.63;;;6.15;;
29214;SDS011;16252;49.816;7.964;2023-03-04T14:04:00;13.27;;;7.13;;
29214;SDS011;16252;49.816;7.964;2023-03-04T14:06:39;15.40;;;6.53;;
29214;SDS011;16252;49.816;7.964;2023-03-04T14:09:16;14.20;;;6.68;;
29214;SDS011;16252;49.816;7.964;2023-03-04T14:11:47;12.98;;;5.63;;
29214;SDS011;16252;49.816;7.964;2023-03-04T14:14:19;10.85;;;5.40;;
29214;SDS011;16252;49.816;7.964;2023-03-04T14:16:49;10.20;;;5.60;;
29214;SDS011;16252;49.816;7.964;2023-03-04T14:19:32;12.63;;;5.75;;
29214;SDS011;16252;49.816;7.964;2023-03-04T14:22:16;18.85;;;6.95;;
29214;SDS011;16252;49.816;7.964;2023-03-04T14:25:24;11.07;;;6.22;;
29214;SDS011;16252;49.816;7.964;2023-03-04T14:28:18;12.63;;;6.45;;
29214;SDS011;16252;49.816;7.964;2023-03-04T14:30:51;12.25;;;6.57;;
29214;SDS011;16252;49.816;7.964;2023-03-04T14:34:11;14.35;;;6.90;;
29214;SDS011;16252;49.816;7.964;2023-03-04T14:37:03;11.77;;;6.22;;
29214;SDS011;16252;49.816;7.964;2023-03-04T14:39:43;14.60;;;6.32;;
29214;SDS011;16252;49.816;7.964;2023-03-04T14:42:09;13.68;;;6.18;;
29214;SDS011;16252;49.816;7.964;2023-03-04T14:44:39;15.70;;;6.93;;
29214;SDS011;16252;49.816;7.964;2023-03-04T14:47:14;14.38;;;6.90;;
29214;SDS011;16252;49.816;7.964;2023-03-04T14:49:44;12.90;;;7.13;;
29214;SDS011;16252;49.816;7.964;2023-03-04T14:54:59;12.38;;;6.32;;
29214;SDS011;16252;49.816;7.964;2023-03-04T14:59:56;8.90;;;5.50;;
29214;SDS011;16252;49.816;7.964;2023-03-04T15:02:39;11.55;;;5.63;;
29214;SDS011;16252;49.816;7.964;2023-03-04T15:05:15;10.88;;;5.90;;
29214;SDS011;16252;49.816;7.964;2023-03-04T15:07:48;7.93;;;4.93;;
29214;SDS011;16252;49.816;7.964;2023-03-04T15:10:18;10.73;;;5.82;;
29214;SDS011;16252;49.816;7.964;2023-03-04T15:12:49;10.95;;;6.03;;
29214;SDS011;16252;49.816;7.964;2023-03-04T15:17:59;8.53;;;5.17;;
29214;SDS011;16252;49.816;7.964;2023-03-04T15:20:28;11.25;;;5.68;;
29214;SDS011;16252;49.816;7.964;2023-03-04T15:22:56;10.75;;;5.93;;
29214;SDS011;16252;49.816;7.964;2023-03-04T15:25:23;10.68;;;5.45;;
29214;SDS011;16252;49.816;7.964;2023-03-04T15:27:49;12.75;;;6.55;;
29214;SDS011;16252;49.816;7.964;2023-03-04T15:30:16;11.32;;;6.25;;
29214;SDS011;16252;49.816;7.964;2023-03-04T15:32:45;10.82;;;6.47;;
29214;SDS011;16252;49.816;7.964;2023-03-04T15:35:11;12.60;;;7.05;;
29214;SDS011;16252;49.816;7.964;2023-03-04T15:37:38;13.15;;;6.85;;
29214;SDS011;16252;49.816;7.964;2023-03-04T15:40:05;14.00;;;5.97;;
29214;SDS011;16252;49.816;7.964;2023-03-04T15:42:38;10.25;;;5.43;;
29214;SDS011;16252;49.816;7.964;2023-03-04T15:45:26;13.70;;;5.38;;
29214;SDS011;16252;49.816;7.964;2023-03-04T15:47:51;11.00;;;6.50;;
29214;SDS011;16252;49.816;7.964;2023-03-04T15:50:17;13.32;;;7.57;;
29214;SDS011;16252;49.816;7.964;2023-03-04T15:52:43;10.25;;;6.05;;
29214;SDS011;16252;49.816;7.964;2023-03-04T15:55:16;16.73;;;8.00;;
29214;SDS011;16252;49.816;7.964;2023-03-04T15:57:44;13.00;;;6.38;;
29214;SDS011;16252;49.816;7.964;2023-03-04T16:00:11;12.57;;;6.40;;
29214;SDS011;16252;49.816;7.964;2023-03-04T16:02:37;19.33;;;9.55;;
29214;SDS011;16252;49.816;7.964;2023-03-04T16:05:03;19.15;;;10.43;;
29214;SDS011;16252;49.816;7.964;2023-03-04T16:07:29;18.13;;;9.07;;
29214;SDS011;16252;49.816;7.964;2023-03-04T16:09:59;14.38;;;7.68;;
29214;SDS011;16252;49.816;7.964;2023-03-04T16:12:30;9.82;;;5.45;;
29214;SDS011;16252;49.816;7.964;2023-03-04T16:14:56;9.48;;;6.07;;
29214;SDS011;16252;49.816;7.964;2023-03-04T16:17:21;9.20;;;6.30;;
29214;SDS011;16252;49.816;7.964;2023-03-04T16:19:47;10.43;;;5.43;;
29214;SDS011;16252;49.816;7.964;2023-03-04T16:22:12;8.98;;;5.20;;
29214;SDS011;16252;49.816;7.964;2023-03-04T16:24:39;7.95;;;5.07;;
29214;SDS011;16252;49.816;7.964;2023-03-04T16:27:09;8.50;;;5.20;;